TAR874 DTTA-DTTJ
Flight info
| Callsign | TAR874 |
|---|---|
| Flight time | 0h 49m |
| Altitude | 23000 |
| Route | GIBLI2C GIBLI A411 MON UA411 ELJEM A411 SFX UA411 JBA |
| Aircraft | A320/M-SDE3FGHIRWY/LB1 |
Departure
| Time | 2026-05-04 13:00 |
|---|---|
| Airport | Tunis Carthage International Airport (DTTA) |
Arrival
| Time | 2026-05-04 13:49 |
|---|---|
| Airport | Djerba Zarzis International Airport (DTTJ) |
| Time | Latitude | Longitude | Altitude | Speed | Heading |
|---|---|---|---|---|---|
| 2026-05-04 12:31 | 36.84645 | 10.21995 | 31 ft | 0 kts | 245° |
| 2026-05-04 12:46 | 36.84650 | 10.22007 | 54 ft | 4 kts | 245° |
| 2026-05-04 12:46 | 36.84661 | 10.22038 | 26 ft | 4 kts | 245° |
| 2026-05-04 12:46 | 36.84673 | 10.22068 | 30 ft | 4 kts | 242° |
| 2026-05-04 12:47 | 36.84685 | 10.22093 | 30 ft | 4 kts | 219° |
| 2026-05-04 12:47 | 36.84703 | 10.22099 | 30 ft | 4 kts | 142° |
| 2026-05-04 12:47 | 36.84716 | 10.22077 | 30 ft | 2 kts | 103° |
| 2026-05-04 12:47 | 36.84722 | 10.22049 | 30 ft | 4 kts | 103° |
| 2026-05-04 12:48 | 36.84728 | 10.22016 | 30 ft | 4 kts | 103° |
| 2026-05-04 12:48 | 36.84734 | 10.21983 | 30 ft | 4 kts | 103° |
| 2026-05-04 12:48 | 36.84736 | 10.21970 | 30 ft | 0 kts | 103° |
| 2026-05-04 12:50 | 36.84736 | 10.21971 | 30 ft | 1 kts | 103° |
| 2026-05-04 12:50 | 36.84731 | 10.21995 | 30 ft | 5 kts | 103° |
| 2026-05-04 12:50 | 36.84723 | 10.22039 | 30 ft | 6 kts | 103° |
| 2026-05-04 12:51 | 36.84706 | 10.22089 | 30 ft | 7 kts | 128° |
| 2026-05-04 12:51 | 36.84659 | 10.22107 | 30 ft | 7 kts | 186° |
| 2026-05-04 12:51 | 36.84614 | 10.22096 | 30 ft | 6 kts | 194° |
| 2026-05-04 12:51 | 36.84579 | 10.22085 | 30 ft | 4 kts | 190° |
| 2026-05-04 12:52 | 36.84554 | 10.22082 | 30 ft | 3 kts | 182° |
| 2026-05-04 12:52 | 36.84530 | 10.22091 | 30 ft | 7 kts | 154° |
| 2026-05-04 12:52 | 36.84501 | 10.22150 | 30 ft | 9 kts | 105° |
| 2026-05-04 12:52 | 36.84499 | 10.22234 | 30 ft | 11 kts | 66° |
| 2026-05-04 12:53 | 36.84563 | 10.22276 | 30 ft | 10 kts | 12° |
| 2026-05-04 12:53 | 36.84626 | 10.22292 | 30 ft | 9 kts | 12° |
| 2026-05-04 12:53 | 36.84680 | 10.22307 | 30 ft | 7 kts | 13° |
| 2026-05-04 12:53 | 36.84725 | 10.22319 | 30 ft | 6 kts | 11° |
| 2026-05-04 12:54 | 36.84785 | 10.22335 | 30 ft | 10 kts | 13° |
| 2026-05-04 12:54 | 36.84846 | 10.22352 | 30 ft | 8 kts | 12° |
| 2026-05-04 12:54 | 36.84898 | 10.22367 | 31 ft | 7 kts | 14° |
| 2026-05-04 12:54 | 36.84938 | 10.22381 | 31 ft | 5 kts | 15° |
| 2026-05-04 12:55 | 36.84999 | 10.22367 | 31 ft | 15 kts | 321° |
| 2026-05-04 12:55 | 36.85033 | 10.22283 | 31 ft | 16 kts | 292° |
| 2026-05-04 12:55 | 36.85081 | 10.22138 | 30 ft | 18 kts | 292° |
| 2026-05-04 12:55 | 36.85126 | 10.22004 | 30 ft | 16 kts | 291° |
| 2026-05-04 12:56 | 36.85167 | 10.21880 | 30 ft | 15 kts | 292° |
| 2026-05-04 12:56 | 36.85206 | 10.21770 | 30 ft | 13 kts | 295° |
| 2026-05-04 12:56 | 36.85273 | 10.21714 | 30 ft | 11 kts | 2° |
| 2026-05-04 12:56 | 36.85341 | 10.21746 | 30 ft | 10 kts | 22° |
| 2026-05-04 12:57 | 36.85387 | 10.21784 | 31 ft | 6 kts | 47° |
| 2026-05-04 12:57 | 36.85401 | 10.21827 | 32 ft | 6 kts | 83° |
| 2026-05-04 12:57 | 36.85395 | 10.21860 | 32 ft | 0 kts | 108° |
| 2026-05-04 12:58 | 36.85394 | 10.21866 | 32 ft | 2 kts | 108° |
| 2026-05-04 12:59 | 36.85340 | 10.22037 | 32 ft | 48 kts | 111° |
| 2026-05-04 13:00 | 36.85116 | 10.22704 | 35 ft | 115 kts | 112° |
| 2026-05-04 13:00 | 36.84746 | 10.23818 | 129 ft | 153 kts | 113° |
| 2026-05-04 13:00 | 36.84324 | 10.25076 | 664 ft | 162 kts | 114° |
| 2026-05-04 13:00 | 36.83897 | 10.26389 | 1346 ft | 163 kts | 116° |
| 2026-05-04 13:01 | 36.83455 | 10.27727 | 1870 ft | 176 kts | 116° |
| 2026-05-04 13:01 | 36.82937 | 10.29219 | 2162 ft | 198 kts | 123° |
| 2026-05-04 13:01 | 36.81913 | 10.30353 | 2519 ft | 207 kts | 164° |
| 2026-05-04 13:01 | 36.80464 | 10.30779 | 2851 ft | 226 kts | 170° |
| 2026-05-04 13:02 | 36.78834 | 10.31140 | 3229 ft | 249 kts | 173° |
| 2026-05-04 13:02 | 36.77078 | 10.31498 | 3876 ft | 260 kts | 173° |
| 2026-05-04 13:02 | 36.75281 | 10.31852 | 4760 ft | 264 kts | 173° |
| 2026-05-04 13:02 | 36.73447 | 10.32205 | 5593 ft | 268 kts | 173° |
| 2026-05-04 13:03 | 36.71582 | 10.32557 | 6415 ft | 274 kts | 173° |
| 2026-05-04 13:03 | 36.69679 | 10.32912 | 7204 ft | 279 kts | 173° |
| 2026-05-04 13:03 | 36.67750 | 10.33269 | 8018 ft | 283 kts | 173° |
| 2026-05-04 13:03 | 36.65819 | 10.33627 | 8829 ft | 286 kts | 174° |
| 2026-05-04 13:04 | 36.63834 | 10.33998 | 9633 ft | 291 kts | 175° |
| 2026-05-04 13:04 | 36.61814 | 10.34374 | 10337 ft | 299 kts | 175° |
| 2026-05-04 13:04 | 36.59675 | 10.34768 | 10557 ft | 322 kts | 174° |
| 2026-05-04 13:04 | 36.57391 | 10.35189 | 10912 ft | 339 kts | 175° |
| 2026-05-04 13:05 | 36.55030 | 10.35625 | 11565 ft | 345 kts | 175° |
| 2026-05-04 13:05 | 36.52639 | 10.36068 | 12284 ft | 349 kts | 175° |
| 2026-05-04 13:05 | 36.50224 | 10.36516 | 13017 ft | 353 kts | 174° |
| 2026-05-04 13:05 | 36.47813 | 10.36962 | 13715 ft | 357 kts | 175° |
| 2026-05-04 13:06 | 36.45343 | 10.37421 | 14349 ft | 361 kts | 174° |
| 2026-05-04 13:06 | 36.42846 | 10.37886 | 14962 ft | 365 kts | 174° |
| 2026-05-04 13:06 | 36.40321 | 10.38355 | 15570 ft | 369 kts | 174° |
| 2026-05-04 13:06 | 36.37766 | 10.38827 | 16150 ft | 374 kts | 174° |
| 2026-05-04 13:07 | 36.35179 | 10.39303 | 16774 ft | 378 kts | 174° |
| 2026-05-04 13:07 | 36.32566 | 10.39784 | 17362 ft | 382 kts | 174° |
| 2026-05-04 13:07 | 36.29929 | 10.40274 | 17963 ft | 386 kts | 174° |
| 2026-05-04 13:07 | 36.27257 | 10.40771 | 18499 ft | 390 kts | 174° |
| 2026-05-04 13:08 | 36.24600 | 10.41265 | 19002 ft | 393 kts | 174° |
| 2026-05-04 13:08 | 36.21882 | 10.41767 | 19532 ft | 396 kts | 175° |
| 2026-05-04 13:08 | 36.19145 | 10.42268 | 20070 ft | 399 kts | 175° |
| 2026-05-04 13:08 | 36.16389 | 10.42774 | 20617 ft | 401 kts | 175° |
| 2026-05-04 13:09 | 36.13620 | 10.43282 | 21157 ft | 404 kts | 175° |
| 2026-05-04 13:09 | 36.10830 | 10.43792 | 21695 ft | 407 kts | 175° |
| 2026-05-04 13:09 | 36.08022 | 10.44305 | 22229 ft | 409 kts | 175° |
| 2026-05-04 13:09 | 36.05199 | 10.44822 | 22746 ft | 412 kts | 175° |
| 2026-05-04 13:10 | 36.02391 | 10.45334 | 23020 ft | 414 kts | 175° |
| 2026-05-04 13:10 | 35.99552 | 10.45856 | 23086 ft | 409 kts | 175° |
| 2026-05-04 13:10 | 35.96754 | 10.46371 | 23079 ft | 406 kts | 175° |
| 2026-05-04 13:10 | 35.93965 | 10.46884 | 23080 ft | 405 kts | 175° |
| 2026-05-04 13:11 | 35.91177 | 10.47394 | 23077 ft | 405 kts | 176° |
| 2026-05-04 13:11 | 35.88393 | 10.47900 | 23070 ft | 405 kts | 176° |
| 2026-05-04 13:11 | 35.85608 | 10.48407 | 23064 ft | 404 kts | 176° |
| 2026-05-04 13:11 | 35.82825 | 10.48915 | 23068 ft | 404 kts | 176° |
| 2026-05-04 13:12 | 35.80081 | 10.49416 | 23066 ft | 404 kts | 176° |
| 2026-05-04 13:12 | 35.77296 | 10.49925 | 23063 ft | 405 kts | 176° |
| 2026-05-04 13:12 | 35.74511 | 10.50432 | 23062 ft | 405 kts | 176° |
| 2026-05-04 13:12 | 35.71724 | 10.50935 | 23064 ft | 405 kts | 176° |
| 2026-05-04 13:13 | 35.68937 | 10.51439 | 23069 ft | 405 kts | 176° |
| 2026-05-04 13:13 | 35.66152 | 10.51943 | 23067 ft | 405 kts | 176° |
| 2026-05-04 13:13 | 35.63364 | 10.52448 | 23066 ft | 405 kts | 176° |
| 2026-05-04 13:13 | 35.60577 | 10.52952 | 23063 ft | 405 kts | 176° |
| 2026-05-04 13:14 | 35.57790 | 10.53455 | 23062 ft | 405 kts | 176° |
| 2026-05-04 13:14 | 35.55043 | 10.53951 | 23058 ft | 405 kts | 176° |
| 2026-05-04 13:14 | 35.52257 | 10.54453 | 23054 ft | 405 kts | 176° |
| 2026-05-04 13:14 | 35.49468 | 10.54957 | 23054 ft | 405 kts | 176° |
| 2026-05-04 13:15 | 35.46681 | 10.55461 | 23055 ft | 405 kts | 176° |
| 2026-05-04 13:15 | 35.43895 | 10.55965 | 23050 ft | 405 kts | 176° |
| 2026-05-04 13:15 | 35.41105 | 10.56470 | 23054 ft | 405 kts | 176° |
| 2026-05-04 13:15 | 35.38319 | 10.56973 | 23061 ft | 405 kts | 176° |
| 2026-05-04 13:16 | 35.35530 | 10.57475 | 23063 ft | 405 kts | 176° |
| 2026-05-04 13:16 | 35.32741 | 10.57977 | 23062 ft | 405 kts | 176° |
| 2026-05-04 13:16 | 35.29990 | 10.58471 | 23065 ft | 405 kts | 176° |
| 2026-05-04 13:16 | 35.27198 | 10.58973 | 23048 ft | 405 kts | 176° |
| 2026-05-04 13:17 | 35.24407 | 10.59474 | 23052 ft | 406 kts | 176° |
| 2026-05-04 13:17 | 35.21613 | 10.59976 | 23056 ft | 406 kts | 176° |
| 2026-05-04 13:17 | 35.18820 | 10.60483 | 23059 ft | 406 kts | 176° |
| 2026-05-04 13:17 | 35.16025 | 10.60990 | 23067 ft | 406 kts | 176° |
| 2026-05-04 13:18 | 35.13229 | 10.61494 | 23068 ft | 406 kts | 176° |
| 2026-05-04 13:18 | 35.10435 | 10.61993 | 23071 ft | 406 kts | 176° |
| 2026-05-04 13:18 | 35.07638 | 10.62488 | 23078 ft | 406 kts | 176° |
| 2026-05-04 13:18 | 35.04845 | 10.62984 | 23085 ft | 406 kts | 176° |
| 2026-05-04 13:19 | 35.02085 | 10.63475 | 23083 ft | 406 kts | 176° |
| 2026-05-04 13:19 | 34.99291 | 10.63972 | 23092 ft | 406 kts | 176° |
| 2026-05-04 13:19 | 34.96494 | 10.64467 | 23103 ft | 406 kts | 176° |
| 2026-05-04 13:19 | 34.93701 | 10.64960 | 23109 ft | 406 kts | 176° |
| 2026-05-04 13:20 | 34.90906 | 10.65456 | 23116 ft | 406 kts | 176° |
| 2026-05-04 13:20 | 34.88110 | 10.65956 | 23122 ft | 406 kts | 176° |
| 2026-05-04 13:20 | 34.85315 | 10.66458 | 23126 ft | 407 kts | 176° |
| 2026-05-04 13:20 | 34.82504 | 10.66962 | 23083 ft | 405 kts | 176° |
| 2026-05-04 13:21 | 34.79757 | 10.67457 | 22934 ft | 392 kts | 176° |
| 2026-05-04 13:21 | 34.77085 | 10.67938 | 22614 ft | 385 kts | 176° |
| 2026-05-04 13:21 | 34.74480 | 10.68403 | 22182 ft | 382 kts | 176° |
| 2026-05-04 13:21 | 34.71862 | 10.68863 | 21736 ft | 379 kts | 176° |
| 2026-05-04 13:22 | 34.69256 | 10.69235 | 21291 ft | 375 kts | 179° |
| 2026-05-04 13:22 | 34.66665 | 10.69496 | 20852 ft | 372 kts | 180° |
| 2026-05-04 13:22 | 34.64090 | 10.69698 | 20419 ft | 370 kts | 180° |
| 2026-05-04 13:22 | 34.61528 | 10.69885 | 19992 ft | 368 kts | 180° |
| 2026-05-04 13:23 | 34.58980 | 10.70079 | 19570 ft | 366 kts | 180° |
| 2026-05-04 13:23 | 34.56446 | 10.70286 | 19158 ft | 364 kts | 179° |
| 2026-05-04 13:23 | 34.53957 | 10.70504 | 18758 ft | 362 kts | 179° |
| 2026-05-04 13:23 | 34.51450 | 10.70733 | 18344 ft | 361 kts | 179° |
| 2026-05-04 13:24 | 34.48949 | 10.70966 | 17885 ft | 359 kts | 179° |
| 2026-05-04 13:24 | 34.46466 | 10.71199 | 17472 ft | 357 kts | 178° |
| 2026-05-04 13:24 | 34.44000 | 10.71430 | 17066 ft | 354 kts | 178° |
| 2026-05-04 13:25 | 34.39125 | 10.71884 | 16311 ft | 348 kts | 178° |
| 2026-05-04 13:25 | 34.36716 | 10.72106 | 15945 ft | 346 kts | 178° |
| 2026-05-04 13:25 | 34.34327 | 10.72324 | 15583 ft | 343 kts | 178° |
| 2026-05-04 13:25 | 34.31989 | 10.72536 | 15232 ft | 341 kts | 178° |
| 2026-05-04 13:26 | 34.29633 | 10.72752 | 14873 ft | 338 kts | 178° |
| 2026-05-04 13:26 | 34.27295 | 10.72972 | 14527 ft | 336 kts | 177° |
| 2026-05-04 13:26 | 34.24975 | 10.73211 | 14161 ft | 334 kts | 176° |
| 2026-05-04 13:26 | 34.22653 | 10.73459 | 13480 ft | 340 kts | 176° |
| 2026-05-04 13:27 | 34.20261 | 10.73718 | 12768 ft | 347 kts | 176° |
| 2026-05-04 13:27 | 34.17858 | 10.73978 | 12274 ft | 346 kts | 176° |
| 2026-05-04 13:27 | 34.15467 | 10.74238 | 11802 ft | 344 kts | 176° |
| 2026-05-04 13:27 | 34.13123 | 10.74492 | 11365 ft | 341 kts | 176° |
| 2026-05-04 13:28 | 34.10793 | 10.74742 | 11186 ft | 330 kts | 176° |
| 2026-05-04 13:28 | 34.08549 | 10.74972 | 11064 ft | 318 kts | 179° |
| 2026-05-04 13:28 | 34.06441 | 10.74567 | 10924 ft | 303 kts | 206° |
| 2026-05-04 13:28 | 34.04853 | 10.73009 | 10637 ft | 294 kts | 237° |
| 2026-05-04 13:29 | 34.04174 | 10.70750 | 10174 ft | 287 kts | 264° |
| 2026-05-04 13:29 | 34.03988 | 10.68355 | 9448 ft | 287 kts | 262° |
| 2026-05-04 13:29 | 34.03493 | 10.66041 | 8736 ft | 285 kts | 247° |
| 2026-05-04 13:29 | 34.02539 | 10.63989 | 8040 ft | 285 kts | 234° |
| 2026-05-04 13:30 | 34.01260 | 10.62180 | 7346 ft | 283 kts | 225° |
| 2026-05-04 13:30 | 33.99810 | 10.60583 | 6685 ft | 281 kts | 219° |
| 2026-05-04 13:30 | 33.98264 | 10.59165 | 6016 ft | 278 kts | 214° |
| 2026-05-04 13:30 | 33.96631 | 10.57939 | 5352 ft | 274 kts | 208° |
| 2026-05-04 13:31 | 33.94934 | 10.56932 | 4737 ft | 270 kts | 203° |
| 2026-05-04 13:31 | 33.93192 | 10.56154 | 4161 ft | 263 kts | 197° |
| 2026-05-04 13:31 | 33.91488 | 10.55619 | 3942 ft | 243 kts | 191° |
| 2026-05-04 13:31 | 33.89890 | 10.55413 | 3840 ft | 224 kts | 169° |
| 2026-05-04 13:32 | 33.88548 | 10.56233 | 3764 ft | 222 kts | 132° |
| 2026-05-04 13:32 | 33.87751 | 10.57763 | 3659 ft | 209 kts | 120° |
| 2026-05-04 13:32 | 33.87216 | 10.59291 | 3612 ft | 188 kts | 104° |
| 2026-05-04 13:32 | 33.87110 | 10.60771 | 3509 ft | 168 kts | 90° |
| 2026-05-04 13:33 | 33.87148 | 10.62144 | 3167 ft | 164 kts | 90° |
| 2026-05-04 13:33 | 33.87182 | 10.63525 | 2736 ft | 166 kts | 90° |
| 2026-05-04 13:33 | 33.87218 | 10.64915 | 2347 ft | 164 kts | 89° |
| 2026-05-04 13:33 | 33.87252 | 10.66203 | 2308 ft | 149 kts | 89° |
| 2026-05-04 13:34 | 33.87283 | 10.67412 | 2311 ft | 144 kts | 91° |
| 2026-05-04 13:34 | 33.87314 | 10.68617 | 2309 ft | 145 kts | 92° |
| 2026-05-04 13:34 | 33.87345 | 10.69823 | 2307 ft | 144 kts | 92° |
| 2026-05-04 13:34 | 33.87375 | 10.71027 | 2307 ft | 144 kts | 90° |
| 2026-05-04 13:35 | 33.87406 | 10.72225 | 2304 ft | 143 kts | 92° |
| 2026-05-04 13:35 | 33.87371 | 10.74595 | 2306 ft | 140 kts | 106° |
| 2026-05-04 13:35 | 33.87108 | 10.75747 | 2295 ft | 143 kts | 109° |
| 2026-05-04 13:36 | 33.86808 | 10.76869 | 2152 ft | 144 kts | 110° |
| 2026-05-04 13:36 | 33.86459 | 10.78137 | 2004 ft | 177 kts | 110° |
| 2026-05-04 13:36 | 33.86051 | 10.79602 | 1995 ft | 188 kts | 110° |
| 2026-05-04 13:36 | 33.85457 | 10.81000 | 2001 ft | 189 kts | 136° |
| 2026-05-04 13:37 | 33.84308 | 10.81704 | 2022 ft | 188 kts | 167° |
| 2026-05-04 13:37 | 33.83015 | 10.81905 | 2005 ft | 188 kts | 179° |
| 2026-05-04 13:37 | 33.81794 | 10.81366 | 2007 ft | 195 kts | 219° |
| 2026-05-04 13:37 | 33.81245 | 10.80506 | 2000 ft | 199 kts | 245° |
| 2026-05-04 13:38 | 33.81052 | 10.78274 | 2019 ft | 206 kts | 270° |
| 2026-05-04 13:38 | 33.81172 | 10.76587 | 2005 ft | 205 kts | 273° |
| 2026-05-04 13:38 | 33.81322 | 10.74874 | 2016 ft | 205 kts | 274° |
| 2026-05-04 13:38 | 33.81461 | 10.73183 | 2008 ft | 202 kts | 273° |
| 2026-05-04 13:39 | 33.81595 | 10.71495 | 2010 ft | 203 kts | 273° |
| 2026-05-04 13:39 | 33.81726 | 10.69798 | 2015 ft | 205 kts | 272° |
| 2026-05-04 13:39 | 33.81861 | 10.68092 | 2002 ft | 205 kts | 274° |
| 2026-05-04 13:39 | 33.81984 | 10.66382 | 2009 ft | 204 kts | 273° |
| 2026-05-04 13:40 | 33.82104 | 10.64677 | 2010 ft | 209 kts | 272° |
| 2026-05-04 13:40 | 33.82251 | 10.62832 | 2005 ft | 229 kts | 274° |
| 2026-05-04 13:40 | 33.82394 | 10.60920 | 1990 ft | 234 kts | 273° |
| 2026-05-04 13:40 | 33.82527 | 10.58955 | 2002 ft | 238 kts | 273° |
| 2026-05-04 13:41 | 33.82670 | 10.56969 | 2009 ft | 238 kts | 272° |
| 2026-05-04 13:41 | 33.82713 | 10.54988 | 2001 ft | 236 kts | 269° |
| 2026-05-04 13:41 | 33.82715 | 10.53017 | 1996 ft | 235 kts | 268° |
| 2026-05-04 13:42 | 33.82707 | 10.49173 | 1989 ft | 218 kts | 268° |
| 2026-05-04 13:42 | 33.82784 | 10.47421 | 1978 ft | 204 kts | 283° |
| 2026-05-04 13:42 | 33.83392 | 10.45924 | 1981 ft | 199 kts | 311° |
| 2026-05-04 13:42 | 33.84476 | 10.44962 | 1983 ft | 197 kts | 340° |
| 2026-05-04 13:43 | 33.85805 | 10.44707 | 1988 ft | 194 kts | 8° |
| 2026-05-04 13:43 | 33.87064 | 10.45213 | 1991 ft | 191 kts | 36° |
| 2026-05-04 13:43 | 33.87984 | 10.46328 | 1992 ft | 188 kts | 62° |
| 2026-05-04 13:43 | 33.88394 | 10.47794 | 1992 ft | 185 kts | 89° |
| 2026-05-04 13:44 | 33.88247 | 10.49310 | 1994 ft | 182 kts | 107° |
| 2026-05-04 13:44 | 33.87921 | 10.50786 | 1993 ft | 183 kts | 106° |
| 2026-05-04 13:44 | 33.87599 | 10.52261 | 2037 ft | 182 kts | 106° |
| 2026-05-04 13:44 | 33.87278 | 10.53736 | 2005 ft | 182 kts | 105° |
| 2026-05-04 13:45 | 33.86993 | 10.55208 | 1985 ft | 176 kts | 95° |
| 2026-05-04 13:45 | 33.87160 | 10.56608 | 2002 ft | 165 kts | 82° |
| 2026-05-04 13:45 | 33.87246 | 10.57956 | 1995 ft | 162 kts | 91° |
| 2026-05-04 13:45 | 33.87260 | 10.59303 | 1997 ft | 163 kts | 94° |
| 2026-05-04 13:46 | 33.87269 | 10.60660 | 2003 ft | 162 kts | 90° |
| 2026-05-04 13:46 | 33.87283 | 10.62028 | 2006 ft | 163 kts | 91° |
| 2026-05-04 13:46 | 33.87304 | 10.63377 | 2009 ft | 162 kts | 91° |
| 2026-05-04 13:46 | 33.87329 | 10.64731 | 2004 ft | 161 kts | 91° |
| 2026-05-04 13:47 | 33.87359 | 10.66088 | 2011 ft | 163 kts | 90° |
| 2026-05-04 13:47 | 33.87389 | 10.67450 | 1919 ft | 163 kts | 93° |
| 2026-05-04 13:47 | 33.87398 | 10.68818 | 1695 ft | 162 kts | 93° |
| 2026-05-04 13:47 | 33.87427 | 10.70166 | 1290 ft | 161 kts | 92° |
| 2026-05-04 13:48 | 33.87443 | 10.71502 | 716 ft | 164 kts | 91° |
| 2026-05-04 13:48 | 33.87473 | 10.72855 | 447 ft | 161 kts | 89° |
| 2026-05-04 13:48 | 33.87514 | 10.74193 | 386 ft | 163 kts | 89° |
| 2026-05-04 13:48 | 33.87469 | 10.75546 | 221 ft | 162 kts | 92° |
| 2026-05-04 13:49 | 33.87535 | 10.76831 | 50 ft | 140 kts | 91° |
| 2026-05-04 13:49 | 33.87539 | 10.77786 | 22 ft | 57 kts | 89° |
| 2026-05-04 13:49 | 33.87548 | 10.77967 | 23 ft | 24 kts | 87° |
| 2026-05-04 13:49 | 33.87553 | 10.78184 | 22 ft | 28 kts | 89° |
| 2026-05-04 13:50 | 33.87555 | 10.78437 | 18 ft | 29 kts | 91° |
| 2026-05-04 13:50 | 33.87500 | 10.78596 | 21 ft | 17 kts | 161° |
| 2026-05-04 13:50 | 33.87398 | 10.78537 | 24 ft | 22 kts | 264° |
| 2026-05-04 13:50 | 33.87396 | 10.78387 | 27 ft | 16 kts | 267° |
| 2026-05-04 13:51 | 33.87394 | 10.78259 | 27 ft | 15 kts | 276° |
| 2026-05-04 13:51 | 33.87404 | 10.78212 | 26 ft | 4 kts | 277° |
| 2026-05-04 13:51 | 33.87401 | 10.78159 | 26 ft | 8 kts | 266° |
| 2026-05-04 13:51 | 33.87395 | 10.78041 | 26 ft | 15 kts | 268° |
| 2026-05-04 13:52 | 33.87365 | 10.77921 | 27 ft | 6 kts | 184° |
| 2026-05-04 13:52 | 33.87335 | 10.77921 | 27 ft | 0 kts | 178° |
| 2026-05-04 13:52 | 33.87330 | 10.77921 | 27 ft | 0 kts | 178° |